createdAt,value
2019-06-01T00:00:11.608Z,78.92
2019-06-01T00:03:06.567Z,78.29
2019-06-01T00:04:06.540Z,78.25
2019-06-01T00:05:06.558Z,78.18
2019-06-01T00:06:06.547Z,77.59
2019-06-01T00:09:06.558Z,78.10
2019-06-01T00:10:06.531Z,77.65
2019-06-01T00:11:06.564Z,77.23
2019-06-01T00:12:06.550Z,76.70
2019-06-01T00:15:06.585Z,76.77
2019-06-01T00:16:06.541Z,77.68
2019-06-01T00:17:06.591Z,77.54
2019-06-01T00:18:06.592Z,77.60
2019-06-01T00:21:06.555Z,76.60
2019-06-01T00:22:06.605Z,76.38
2019-06-01T00:23:06.614Z,76.60
2019-06-01T00:24:06.590Z,76.35
2019-06-01T00:27:06.604Z,77.14
2019-06-01T00:28:06.552Z,77.23
2019-06-01T00:29:06.579Z,76.81
2019-06-01T00:30:06.561Z,76.56
2019-06-01T00:33:06.620Z,76.72
2019-06-01T00:34:06.618Z,76.16
2019-06-01T00:35:06.613Z,75.85
2019-06-01T00:36:06.583Z,75.87
2019-06-01T00:39:06.615Z,75.24
2019-06-01T00:40:06.586Z,75.08
2019-06-01T00:41:06.617Z,75.29
2019-06-01T00:42:06.617Z,75.68
2019-06-01T00:45:06.618Z,76.25
2019-06-01T00:46:06.563Z,76.29
2019-06-01T00:47:06.629Z,76.35
2019-06-01T00:48:06.579Z,76.84
2019-06-01T00:51:06.595Z,76.65
2019-06-01T00:52:06.580Z,76.54
2019-06-01T00:53:06.607Z,76.14
2019-06-01T00:54:06.588Z,76.30
2019-06-01T00:57:06.647Z,76.91
2019-06-01T00:58:06.573Z,76.64
2019-06-01T00:59:06.635Z,77.12
2019-06-01T01:00:06.631Z,77.37
2019-06-01T01:03:06.611Z,76.48
2019-06-01T01:04:06.634Z,76.38
2019-06-01T01:05:06.646Z,76.88
2019-06-01T01:06:06.638Z,76.92
2019-06-01T01:09:06.602Z,76.55
2019-06-01T01:10:06.587Z,76.40
2019-06-01T01:11:06.644Z,76.54
2019-06-01T01:12:06.641Z,76.41
2019-06-01T01:15:06.640Z,76.05
2019-06-01T01:16:06.586Z,75.91
2019-06-01T01:17:06.656Z,76.22
2019-06-01T01:18:06.652Z,75.98
2019-06-01T01:21:06.606Z,76.10
2019-06-01T01:22:06.652Z,76.62
2019-06-01T01:23:06.631Z,76.43
2019-06-01T01:24:06.604Z,76.26
2019-06-01T01:27:06.635Z,76.51
2019-06-01T01:28:06.593Z,76.44
2019-06-01T01:29:06.660Z,76.23
2019-06-01T01:30:06.660Z,76.13
2019-06-01T01:33:06.607Z,75.68
2019-06-01T01:34:06.659Z,75.42
2019-06-01T01:35:06.676Z,75.80
2019-06-01T01:36:06.659Z,76.16
2019-06-01T01:39:06.657Z,76.48
2019-06-01T01:40:06.610Z,76.07
2019-06-01T01:41:06.660Z,75.97
2019-06-01T01:42:06.667Z,75.73
2019-06-01T01:45:06.689Z,76.20
2019-06-01T01:46:06.679Z,75.87
2019-06-01T01:47:06.669Z,76.27
2019-06-01T01:48:06.669Z,76.17
2019-06-01T01:51:06.682Z,75.92
2019-06-01T01:52:06.620Z,76.01
2019-06-01T01:53:06.690Z,76.13
2019-06-01T01:54:06.660Z,76.12
2019-06-01T01:57:07.288Z,75.91
2019-06-01T01:58:06.678Z,75.69
2019-06-01T01:59:06.652Z,75.54
2019-06-01T02:00:06.640Z,75.79
2019-06-01T02:03:06.682Z,76.45
2019-06-01T02:04:06.669Z,76.13
2019-06-01T02:05:06.701Z,76.25
2019-06-01T02:06:06.687Z,76.00
2019-06-01T02:09:06.707Z,76.00
2019-06-01T02:10:06.635Z,76.08
2019-06-01T02:11:06.690Z,76.19
2019-06-01T02:12:06.683Z,76.09
2019-06-01T02:15:06.698Z,77.48
2019-06-01T02:16:06.642Z,77.22
2019-06-01T02:17:06.690Z,77.29
2019-06-01T02:18:06.710Z,77.07
2019-06-01T02:21:06.707Z,77.37
2019-06-01T02:22:06.643Z,77.94
2019-06-01T02:23:06.689Z,77.56
2019-06-01T02:24:06.667Z,77.03
2019-06-01T02:27:06.669Z,77.05
2019-06-01T02:28:06.708Z,76.64
2019-06-01T02:29:06.668Z,76.29
2019-06-01T02:30:06.671Z,75.91
2019-06-01T02:33:06.710Z,77.53
2019-06-01T02:34:06.682Z,76.89
2019-06-01T02:35:06.726Z,77.10
2019-06-01T02:36:06.702Z,77.17
2019-06-01T02:39:06.712Z,76.55
2019-06-01T02:40:06.710Z,76.69
2019-06-01T02:41:06.679Z,76.90
2019-06-01T02:42:06.694Z,76.81
2019-06-01T02:45:06.679Z,77.43
2019-06-01T02:46:07.406Z,77.33
2019-06-01T02:47:06.691Z,77.12
2019-06-01T02:48:06.892Z,77.02
2019-06-01T02:51:06.722Z,78.24
2019-06-01T02:52:06.671Z,78.18
2019-06-01T02:53:06.760Z,78.51
2019-06-01T02:54:06.724Z,78.38
2019-06-01T02:57:06.730Z,77.94
2019-06-01T02:58:06.918Z,77.53
2019-06-01T02:59:06.870Z,77.82
2019-06-01T03:00:06.792Z,78.03
2019-06-01T03:03:06.955Z,77.58
2019-06-01T03:04:08.179Z,77.31
2019-06-01T03:05:07.656Z,77.14
2019-06-01T03:06:07.709Z,77.26
2019-06-01T03:09:08.733Z,77.19
2019-06-01T03:10:07.067Z,77.64
2019-06-01T03:11:07.997Z,77.76
2019-06-01T03:12:06.730Z,77.50
2019-06-01T03:15:06.764Z,76.96
2019-06-01T03:16:06.695Z,77.30
2019-06-01T03:17:07.883Z,77.23
2019-06-01T03:18:07.739Z,77.17
2019-06-01T03:21:07.879Z,76.91
2019-06-01T03:22:07.313Z,76.81
2019-06-01T03:23:07.742Z,77.21
2019-06-01T03:24:08.049Z,77.82
2019-06-01T03:27:06.711Z,77.14
2019-06-01T03:28:06.699Z,77.35
2019-06-01T03:29:07.330Z,77.66
2019-06-01T03:30:08.879Z,77.30
2019-06-01T03:33:08.640Z,76.97
2019-06-01T03:34:08.750Z,76.97
2019-06-01T03:35:06.815Z,76.92
2019-06-01T03:36:06.942Z,77.18
2019-06-01T03:39:06.717Z,77.02
2019-06-01T03:40:14.169Z,77.48
2019-06-01T03:41:06.753Z,77.65
2019-06-01T03:42:07.978Z,77.58
2019-06-01T03:45:07.628Z,77.27
2019-06-01T03:46:06.738Z,76.99
2019-06-01T03:47:07.602Z,76.99
2019-06-01T03:48:06.866Z,76.69
2019-06-01T03:51:08.305Z,77.51
2019-06-01T03:52:06.962Z,77.41
2019-06-01T03:53:07.893Z,77.32
2019-06-01T03:54:08.276Z,77.17
2019-06-01T03:57:07.282Z,76.96
2019-06-01T03:58:07.272Z,76.87
2019-06-01T03:59:07.262Z,76.94
2019-06-01T04:00:07.175Z,76.77
2019-06-01T04:03:07.160Z,76.61
2019-06-01T04:04:07.175Z,76.78
2019-06-01T04:05:07.395Z,77.11
2019-06-01T04:06:07.368Z,77.28
2019-06-01T04:09:07.687Z,76.57
2019-06-01T04:10:07.965Z,76.66
2019-06-01T04:11:07.755Z,76.32
2019-06-01T04:12:07.679Z,76.60
2019-06-01T04:15:11.176Z,76.21
2019-06-01T04:16:07.851Z,75.94
2019-06-01T04:17:08.026Z,75.63
2019-06-01T04:18:08.001Z,75.82
2019-06-01T04:21:08.035Z,74.79
2019-06-01T04:22:07.956Z,74.62
2019-06-01T04:23:08.005Z,74.53
2019-06-01T04:24:07.989Z,74.48
2019-06-01T04:27:08.134Z,73.86
2019-06-01T04:28:06.752Z,73.44
2019-06-01T04:29:06.822Z,73.61
2019-06-01T04:30:06.857Z,74.15
2019-06-01T04:33:07.042Z,74.71
2019-06-01T04:34:06.827Z,74.79
2019-06-01T04:35:07.359Z,74.05
2019-06-01T04:36:06.924Z,73.63
2019-06-01T04:39:07.321Z,73.13
2019-06-01T04:40:07.438Z,72.60
2019-06-01T04:41:07.602Z,72.48
2019-06-01T04:42:07.714Z,72.85
2019-06-01T04:45:07.084Z,71.71
2019-06-01T04:46:07.866Z,72.06
2019-06-01T04:47:06.867Z,72.55
2019-06-01T04:48:06.818Z,72.87
2019-06-01T04:51:06.831Z,72.13
2019-06-01T04:52:06.846Z,71.72
2019-06-01T04:53:06.923Z,70.93
2019-06-01T04:54:06.942Z,71.04
2019-06-01T04:57:06.865Z,70.24
2019-06-01T04:58:06.878Z,70.04
2019-06-01T04:59:06.891Z,70.58
2019-06-01T05:00:19.712Z,70.16
2019-06-01T05:03:08.478Z,71.17
2019-06-01T05:04:07.119Z,70.32
2019-06-01T05:05:07.180Z,69.42
2019-06-01T05:06:07.222Z,69.57
2019-06-01T05:09:07.269Z,69.98
2019-06-01T05:10:07.438Z,69.29
2019-06-01T05:11:07.416Z,69.16
2019-06-01T05:12:07.500Z,69.37
2019-06-01T05:15:07.583Z,68.75
2019-06-01T05:16:07.894Z,68.96
2019-06-01T05:17:07.883Z,69.14
2019-06-01T05:18:07.847Z,69.38
2019-06-01T05:21:06.803Z,68.41
2019-06-01T05:22:06.848Z,67.84
2019-06-01T05:23:06.835Z,66.69
2019-06-01T05:24:06.839Z,67.22
2019-06-01T05:27:06.936Z,65.56
2019-06-01T05:28:07.051Z,65.56
2019-06-01T05:29:07.472Z,64.98
2019-06-01T05:30:07.334Z,64.77
2019-06-01T05:33:22.435Z,63.00
2019-06-01T05:34:07.725Z,61.78
2019-06-01T05:35:07.743Z,62.45
2019-06-01T05:36:07.993Z,64.82
2019-06-01T05:39:08.134Z,64.05
2019-06-01T05:40:06.860Z,63.87
2019-06-01T05:41:06.852Z,63.75
2019-06-01T05:42:06.817Z,65.08
2019-06-01T05:45:06.833Z,62.55
2019-06-01T05:46:06.872Z,63.10
2019-06-01T05:47:06.869Z,60.18
2019-06-01T05:48:06.854Z,59.61
2019-06-01T05:51:06.849Z,59.53
2019-06-01T05:52:06.876Z,60.42
2019-06-01T05:53:06.873Z,60.28
2019-06-01T05:54:06.838Z,60.95
2019-06-01T05:57:06.837Z,57.74
2019-06-01T05:58:06.885Z,59.29
2019-06-01T05:59:06.877Z,59.99
2019-06-01T06:00:06.853Z,59.11
2019-06-01T06:03:06.866Z,60.02
2019-06-01T06:04:06.873Z,58.58
2019-06-01T06:05:06.858Z,58.38
2019-06-01T06:06:06.849Z,55.39
2019-06-01T06:08:09.890Z,57.53
2019-06-01T06:09:11.363Z,56.96
2019-06-01T06:10:09.911Z,57.82
2019-06-01T06:11:10.830Z,56.42
2019-06-01T06:14:11.378Z,53.63
2019-06-01T06:15:09.872Z,54.18
2019-06-01T06:16:09.898Z,54.69
2019-06-01T06:17:13.703Z,54.86
2019-06-01T06:20:09.902Z,55.50
2019-06-01T06:21:09.885Z,53.46
2019-06-01T06:22:09.932Z,54.05
2019-06-01T06:23:09.927Z,53.30
2019-06-01T06:25:09.950Z,53.24
2019-06-01T06:26:09.904Z,52.66
2019-06-01T06:27:09.890Z,52.85
2019-06-01T06:28:09.874Z,52.02
2019-06-01T06:31:09.946Z,52.58
2019-06-01T06:32:09.902Z,53.54
2019-06-01T06:33:09.902Z,52.26
2019-06-01T06:34:09.934Z,52.51
2019-06-01T06:36:09.903Z,52.87
2019-06-01T06:37:09.949Z,51.35
2019-06-01T06:38:09.902Z,52.42
2019-06-01T06:39:09.905Z,51.85
2019-06-01T06:42:09.903Z,52.26
2019-06-01T06:43:19.206Z,50.98
2019-06-01T06:44:09.918Z,50.53
2019-06-01T06:45:09.920Z,51.17
2019-06-01T06:47:09.930Z,51.20
2019-06-01T06:48:09.907Z,51.77
2019-06-01T06:49:10.165Z,50.96
2019-06-01T06:50:09.923Z,50.82
2019-06-01T06:52:10.003Z,49.97
2019-06-01T06:53:22.396Z,50.89
2019-06-01T06:54:09.952Z,50.41
2019-06-01T06:55:09.923Z,51.45
2019-06-01T06:58:09.912Z,48.69
2019-06-01T06:59:11.795Z,48.84
2019-06-01T07:00:09.926Z,50.21
2019-06-01T07:01:12.156Z,49.37
2019-06-01T07:03:09.933Z,50.21
2019-06-01T07:04:12.623Z,49.56
2019-06-01T07:05:09.935Z,48.35
2019-06-01T07:06:09.936Z,47.00
2019-06-01T07:08:09.961Z,46.58
2019-06-01T07:09:09.941Z,46.43
2019-06-01T07:10:09.969Z,47.48
2019-06-01T07:11:11.926Z,47.85
2019-06-01T07:14:09.995Z,46.42
2019-06-01T07:15:09.936Z,47.58
2019-06-01T07:16:09.987Z,47.19
2019-06-01T07:17:10.000Z,45.56
2019-06-01T07:20:09.970Z,44.53
2019-06-01T07:21:09.932Z,44.40
2019-06-01T07:22:09.977Z,42.99
2019-06-01T07:23:09.967Z,44.68
2019-06-01T07:25:09.949Z,45.39
2019-06-01T07:26:09.971Z,43.02
2019-06-01T07:27:09.974Z,41.84
2019-06-01T07:28:09.993Z,42.07
2019-06-01T07:31:09.983Z,44.08
2019-06-01T07:32:09.955Z,43.42
2019-06-01T07:33:11.403Z,44.00
2019-06-01T07:34:10.008Z,44.12
2019-06-01T07:37:09.985Z,41.34
2019-06-01T07:38:09.982Z,41.86
2019-06-01T07:39:09.966Z,42.42
2019-06-01T07:40:13.403Z,42.87
2019-06-01T07:42:09.996Z,42.14
2019-06-01T07:43:10.008Z,42.93
2019-06-01T07:44:10.027Z,42.79
2019-06-01T07:45:09.951Z,43.04
2019-06-01T07:48:09.970Z,43.05
2019-06-01T07:49:10.016Z,42.65
2019-06-01T07:50:09.987Z,40.62
2019-06-01T07:51:09.968Z,40.71
2019-06-01T08:04:12.397Z,43.11
2019-06-01T08:05:12.408Z,43.52
2019-06-01T08:06:12.417Z,43.85
2019-06-01T08:07:12.465Z,42.70
2019-06-01T08:08:12.434Z,44.73
2019-06-01T08:09:12.429Z,45.75
2019-06-01T08:10:12.513Z,43.20
2019-06-01T08:11:12.430Z,42.43
2019-06-01T08:12:12.434Z,42.09
2019-06-01T08:13:12.419Z,41.36
2019-06-01T08:14:12.468Z,41.69
2019-06-01T08:15:12.482Z,41.00
2019-06-01T08:16:12.471Z,40.03
2019-06-01T08:17:12.427Z,41.12
2019-06-01T08:18:12.448Z,38.84
2019-06-01T08:19:12.452Z,40.12
2019-06-01T08:20:12.464Z,38.51
2019-06-01T08:21:12.482Z,38.69
2019-06-01T08:22:12.478Z,38.17
2019-06-01T08:23:12.464Z,36.42
2019-06-01T08:24:12.497Z,37.70
2019-06-01T08:25:12.468Z,38.24
2019-06-01T08:26:12.472Z,38.53
2019-06-01T08:27:12.485Z,37.60
2019-06-01T08:28:15.540Z,39.00
2019-06-01T08:29:15.488Z,40.65
2019-06-01T08:30:15.488Z,39.65
2019-06-01T08:31:15.495Z,40.08
2019-06-01T08:32:15.455Z,40.66
2019-06-01T08:33:15.506Z,41.19
2019-06-01T08:34:15.506Z,43.01
2019-06-01T08:35:15.516Z,41.29
2019-06-01T08:36:15.516Z,42.08
2019-06-01T08:37:15.518Z,41.11
2019-06-01T08:38:15.513Z,41.14
2019-06-01T08:39:15.518Z,42.76
2019-06-01T08:40:15.623Z,42.64
2019-06-01T08:41:15.504Z,41.81
2019-06-01T08:42:15.513Z,40.09
2019-06-01T08:43:15.539Z,39.14
2019-06-01T08:44:15.467Z,41.56
2019-06-01T08:45:15.518Z,39.62
2019-06-01T08:46:15.511Z,39.93
2019-06-01T08:47:15.499Z,40.15
2019-06-01T08:48:15.480Z,39.69
2019-06-01T08:49:15.532Z,40.19
2019-06-01T08:50:15.488Z,39.42
2019-06-01T08:51:15.530Z,40.25
2019-06-01T08:52:15.540Z,40.68
2019-06-01T08:53:15.485Z,39.50
2019-06-01T08:54:15.509Z,40.26
2019-06-01T08:55:15.511Z,40.79
2019-06-01T08:56:15.520Z,41.32
2019-06-01T08:57:15.541Z,41.24
2019-06-01T08:58:15.538Z,40.90
2019-06-01T08:59:15.517Z,41.09
2019-06-01T09:00:15.476Z,41.88
2019-06-01T09:01:15.521Z,43.18
2019-06-01T09:02:15.507Z,43.12
2019-06-01T09:03:15.573Z,42.60
2019-06-01T09:04:15.595Z,43.42
2019-06-01T09:06:15.482Z,42.13
2019-06-01T09:07:15.513Z,41.68
2019-06-01T09:08:15.493Z,43.44
2019-06-01T09:09:15.532Z,42.67
2019-06-01T09:10:15.584Z,40.72
2019-06-01T09:11:15.543Z,42.64
2019-06-01T09:12:15.531Z,42.00
2019-06-01T09:13:15.530Z,40.39
2019-06-01T09:14:15.507Z,39.26
2019-06-01T09:15:15.555Z,39.94
2019-06-01T09:16:15.585Z,40.62
2019-06-01T09:17:18.532Z,40.31
2019-06-01T09:18:15.559Z,40.46
2019-06-01T09:19:15.490Z,40.47
2019-06-01T09:20:15.566Z,41.33
2019-06-01T09:21:15.532Z,41.45
2019-06-01T09:22:15.564Z,40.73
2019-06-01T09:23:15.539Z,40.45
2019-06-01T09:24:15.542Z,40.17
2019-06-01T09:25:15.541Z,39.86
2019-06-01T09:26:15.562Z,39.85
2019-06-01T09:27:15.542Z,40.24
2019-06-01T09:28:15.557Z,40.22
2019-06-01T09:29:15.526Z,38.65
2019-06-01T09:30:15.554Z,37.61
2019-06-01T09:31:15.555Z,37.64
2019-06-01T09:32:15.531Z,36.89
2019-06-01T09:33:15.565Z,36.55
2019-06-01T09:34:15.574Z,38.29
2019-06-01T09:35:15.567Z,38.75
2019-06-01T09:36:15.591Z,37.54
2019-06-01T09:37:15.572Z,39.19
2019-06-01T09:38:15.522Z,38.22
2019-06-01T09:39:15.575Z,37.85
2019-06-01T09:40:15.569Z,37.64
2019-06-01T09:41:15.585Z,38.54
2019-06-01T09:42:15.583Z,36.72
2019-06-01T09:43:15.563Z,36.23
2019-06-01T09:44:15.539Z,36.94
2019-06-01T09:45:15.584Z,36.08
2019-06-01T09:46:15.601Z,37.04
2019-06-01T09:47:15.570Z,35.36
2019-06-01T09:48:15.606Z,35.34
2019-06-01T09:49:15.578Z,36.83
2019-06-01T09:50:15.556Z,38.12
2019-06-01T09:51:15.590Z,37.14
2019-06-01T09:52:15.630Z,36.77
2019-06-01T09:53:15.557Z,35.58
2019-06-01T09:54:15.533Z,34.28
2019-06-01T09:55:15.590Z,37.22
2019-06-01T09:56:15.561Z,36.91
2019-06-01T09:57:15.590Z,34.97
2019-06-01T09:58:15.625Z,36.51
2019-06-01T09:59:15.577Z,35.94
2019-06-01T10:00:15.601Z,36.14
2019-06-01T10:01:15.602Z,36.64
2019-06-01T10:02:15.586Z,35.51
2019-06-01T10:03:15.617Z,38.16
2019-06-01T10:04:15.601Z,37.45
2019-06-01T10:05:15.545Z,37.43
2019-06-01T10:06:15.644Z,38.20
2019-06-01T10:07:15.599Z,36.16
2019-06-01T10:08:15.574Z,36.27
2019-06-01T10:09:15.612Z,37.57
2019-06-01T10:10:15.691Z,36.95
2019-06-01T10:11:15.611Z,35.71
2019-06-01T10:12:15.603Z,34.13
2019-06-01T10:13:15.609Z,36.73
2019-06-01T10:14:15.567Z,38.56
2019-06-01T10:15:15.610Z,36.41
2019-06-01T10:16:15.638Z,37.33
2019-06-01T10:17:15.587Z,38.28
2019-06-01T10:18:15.595Z,37.79
2019-06-01T10:19:15.616Z,36.41
2019-06-01T10:20:15.619Z,37.14
2019-06-01T10:21:15.588Z,35.90
2019-06-01T10:22:15.625Z,37.66
2019-06-01T10:23:15.594Z,37.38
2019-06-01T10:24:15.633Z,36.99
2019-06-01T10:25:15.615Z,36.47
2019-06-01T10:26:15.616Z,37.10
2019-06-01T10:27:15.624Z,33.90
2019-06-01T10:28:15.612Z,33.91
2019-06-01T10:29:15.587Z,35.21
2019-06-01T10:30:15.660Z,36.17
2019-06-01T10:31:15.625Z,36.52
2019-06-01T10:32:15.597Z,38.36
2019-06-01T10:33:15.609Z,38.24
2019-06-01T10:34:15.678Z,35.90
2019-06-01T10:35:15.603Z,35.10
2019-06-01T10:36:20.790Z,33.89
2019-06-01T10:37:15.620Z,32.53
2019-06-01T10:38:15.627Z,33.29
2019-06-01T10:39:19.436Z,33.26
2019-06-01T10:40:15.695Z,33.38
2019-06-01T10:41:15.604Z,34.55
2019-06-01T10:42:15.639Z,35.56
2019-06-01T10:43:15.638Z,36.85
2019-06-01T10:44:15.605Z,35.55
2019-06-01T10:45:15.650Z,34.67
2019-06-01T10:46:15.656Z,36.98
2019-06-01T10:47:15.664Z,36.58
2019-06-01T10:48:15.655Z,36.75
2019-06-01T10:49:15.650Z,36.18
2019-06-01T10:50:17.435Z,35.89
2019-06-01T10:51:15.770Z,37.44
2019-06-01T10:52:15.662Z,38.14
2019-06-01T10:53:15.649Z,37.16
2019-06-01T10:54:15.662Z,36.24
2019-06-01T10:55:15.641Z,37.13
2019-06-01T10:56:15.622Z,35.33
2019-06-01T10:57:15.659Z,36.61
2019-06-01T10:58:15.660Z,36.82
2019-06-01T10:59:15.623Z,36.11
2019-06-01T11:00:15.622Z,37.32
2019-06-01T11:01:15.684Z,35.56
2019-06-01T11:02:15.629Z,34.40
2019-06-01T11:03:15.654Z,35.44
2019-06-01T11:04:15.660Z,37.62
2019-06-01T11:05:15.613Z,34.16
2019-06-01T11:06:15.658Z,37.61
2019-06-01T11:07:15.676Z,35.25
2019-06-01T11:08:15.666Z,34.73
2019-06-01T11:09:15.683Z,31.64
2019-06-01T11:10:15.668Z,32.41
2019-06-01T11:11:15.635Z,34.33
2019-06-01T11:12:15.660Z,34.34
2019-06-01T11:13:15.680Z,33.11
2019-06-01T11:14:15.646Z,33.94
2019-06-01T11:15:15.690Z,35.22
2019-06-01T11:16:15.690Z,36.83
2019-06-01T11:17:15.695Z,37.29
2019-06-01T11:18:15.655Z,36.75
2019-06-01T11:19:15.671Z,37.63
2019-06-01T11:20:15.651Z,37.16
2019-06-01T11:21:15.691Z,38.44
2019-06-01T11:22:15.708Z,36.71
2019-06-01T11:23:15.685Z,36.19
2019-06-01T11:24:15.689Z,35.39
2019-06-01T11:25:15.687Z,35.79
2019-06-01T11:26:15.661Z,37.74
2019-06-01T11:27:15.715Z,35.54
2019-06-01T11:28:15.706Z,36.34
2019-06-01T11:29:15.697Z,36.53
2019-06-01T11:30:15.659Z,37.28
2019-06-01T11:31:15.702Z,38.29
2019-06-01T11:32:15.668Z,38.51
2019-06-01T11:33:15.700Z,37.85
2019-06-01T11:34:15.691Z,38.30
2019-06-01T11:35:15.651Z,39.01
2019-06-01T11:36:15.684Z,39.01
2019-06-01T11:37:15.979Z,38.75
2019-06-01T11:38:15.692Z,38.99
2019-06-01T11:39:15.713Z,38.93
2019-06-01T11:40:15.702Z,37.12
2019-06-01T11:41:18.467Z,37.50
2019-06-01T11:42:19.582Z,37.58
2019-06-01T11:43:15.706Z,37.91
2019-06-01T11:44:15.670Z,36.94
2019-06-01T11:45:15.719Z,36.46
2019-06-01T11:46:15.756Z,35.81
2019-06-01T11:47:15.751Z,35.45
2019-06-01T11:48:15.700Z,35.57
2019-06-01T11:49:20.387Z,36.13
2019-06-01T11:50:15.672Z,33.75
2019-06-01T11:51:15.712Z,36.16
2019-06-01T11:52:15.815Z,35.35
2019-06-01T11:53:15.693Z,36.00
2019-06-01T11:54:15.713Z,35.28
2019-06-01T11:55:15.683Z,35.00
2019-06-01T11:56:15.692Z,34.61
2019-06-01T11:57:15.702Z,36.03
2019-06-01T11:58:15.849Z,34.44
2019-06-01T11:59:15.720Z,33.82
2019-06-01T12:00:15.724Z,32.69
2019-06-01T12:01:15.736Z,33.92
2019-06-01T12:02:15.700Z,33.04
2019-06-01T12:03:15.758Z,33.77
2019-06-01T12:04:15.802Z,35.46
2019-06-01T12:05:15.698Z,34.40
2019-06-01T12:06:15.727Z,35.63
2019-06-01T12:07:18.192Z,34.74
2019-06-01T12:08:15.751Z,32.88
2019-06-01T12:09:15.722Z,34.61
2019-06-01T12:10:15.745Z,33.87
2019-06-01T12:11:15.698Z,32.97
2019-06-01T12:12:15.704Z,34.55
2019-06-01T12:13:15.740Z,33.91
2019-06-01T12:14:15.782Z,34.41
2019-06-01T12:15:15.705Z,34.48
2019-06-01T12:16:15.790Z,35.64
2019-06-01T12:17:15.726Z,37.15
2019-06-01T12:18:15.726Z,33.72
2019-06-01T12:19:15.763Z,33.97
2019-06-01T12:20:15.720Z,33.51
2019-06-01T12:21:15.777Z,34.36
2019-06-01T12:22:15.780Z,33.47
2019-06-01T12:23:15.712Z,33.51
2019-06-01T12:24:15.747Z,32.76
2019-06-01T12:25:15.726Z,33.53
2019-06-01T12:26:15.766Z,33.75
2019-06-01T12:27:15.770Z,35.48
2019-06-01T12:28:15.815Z,34.80
2019-06-01T12:29:15.738Z,35.48
2019-06-01T12:30:15.725Z,35.93
2019-06-01T12:31:15.794Z,36.54
2019-06-01T12:32:15.709Z,34.88
2019-06-01T12:33:15.762Z,34.96
2019-06-01T12:34:17.131Z,36.12
2019-06-01T12:35:15.823Z,37.57
2019-06-01T12:36:15.755Z,36.24
2019-06-01T12:37:15.794Z,36.91
2019-06-01T12:38:15.733Z,36.34
2019-06-01T12:39:15.988Z,35.77
2019-06-01T12:40:15.802Z,36.39
2019-06-01T12:41:15.738Z,37.27
2019-06-01T12:42:15.796Z,36.15
2019-06-01T12:43:15.746Z,36.66
2019-06-01T12:44:15.761Z,37.50
2019-06-01T12:45:15.761Z,37.57
2019-06-01T12:46:15.815Z,36.54
2019-06-01T12:47:15.766Z,35.29
2019-06-01T12:48:15.786Z,34.71
2019-06-01T12:49:15.816Z,34.82
2019-06-01T12:50:15.819Z,34.13
2019-06-01T12:51:15.827Z,36.02
2019-06-01T12:52:15.854Z,33.65
2019-06-01T12:53:15.821Z,33.37
2019-06-01T12:54:16.975Z,32.21
2019-06-01T12:55:15.806Z,33.19
2019-06-01T12:56:15.848Z,34.89
2019-06-01T12:57:15.800Z,33.63
2019-06-01T12:58:15.791Z,34.95
2019-06-01T12:59:15.766Z,33.81
2019-06-01T13:00:15.796Z,34.12
2019-06-01T13:01:15.802Z,33.07
2019-06-01T13:02:15.753Z,32.45
2019-06-01T13:03:15.806Z,32.53
2019-06-01T13:04:15.823Z,32.43
2019-06-01T13:05:15.786Z,32.96
2019-06-01T13:06:15.829Z,31.97
2019-06-01T13:07:15.817Z,31.49
2019-06-01T13:08:15.785Z,31.05
2019-06-01T13:09:15.810Z,31.80
2019-06-01T13:10:15.827Z,32.80
2019-06-01T13:11:15.771Z,33.33
2019-06-01T13:12:15.838Z,32.84
2019-06-01T13:13:15.795Z,34.37
2019-06-01T13:14:15.801Z,34.13
2019-06-01T13:15:15.823Z,32.70
2019-06-01T13:16:15.836Z,32.48
2019-06-01T13:17:15.769Z,31.83
2019-06-01T13:18:15.803Z,32.13
2019-06-01T13:19:15.816Z,32.21
2019-06-01T13:20:15.789Z,32.16
2019-06-01T13:21:15.819Z,32.58
2019-06-01T13:22:15.829Z,32.02
2019-06-01T13:23:15.785Z,33.67
2019-06-01T13:24:15.806Z,33.08
2019-06-01T13:25:15.818Z,32.47
2019-06-01T13:26:15.787Z,31.49
2019-06-01T13:27:15.812Z,30.98
2019-06-01T13:28:15.846Z,32.55
2019-06-01T13:29:15.774Z,30.88
2019-06-01T13:30:15.865Z,31.69
2019-06-01T13:31:15.796Z,31.43
2019-06-01T13:32:15.826Z,31.86
2019-06-01T13:33:15.820Z,32.85
2019-06-01T13:34:15.890Z,31.66
2019-06-01T13:35:15.858Z,31.05
2019-06-01T13:36:16.139Z,29.51
2019-06-01T13:37:15.836Z,34.96
2019-06-01T13:38:15.813Z,32.72
2019-06-01T13:39:15.851Z,31.65
2019-06-01T13:40:15.845Z,32.06
2019-06-01T13:41:15.828Z,31.79
2019-06-01T13:42:15.854Z,31.90
2019-06-01T13:43:15.861Z,32.11
2019-06-01T13:44:15.869Z,32.44
2019-06-01T13:45:15.864Z,30.84
2019-06-01T13:46:15.935Z,31.20
2019-06-01T13:47:15.934Z,33.19
2019-06-01T13:48:15.919Z,30.93
2019-06-01T13:49:15.933Z,31.46
2019-06-01T13:50:15.922Z,32.40
2019-06-01T13:51:15.983Z,31.62
2019-06-01T13:52:16.020Z,31.57
2019-06-01T13:53:15.957Z,31.50
2019-06-01T13:54:16.020Z,30.75
2019-06-01T13:55:16.009Z,32.44
2019-06-01T13:56:15.990Z,32.01
2019-06-01T13:57:16.052Z,34.91
2019-06-01T13:58:16.030Z,32.89
2019-06-01T13:59:16.025Z,34.10
2019-06-01T14:00:29.237Z,33.95
2019-06-01T14:01:16.082Z,35.35
2019-06-01T14:02:16.081Z,34.85
2019-06-01T14:03:16.126Z,35.61
2019-06-01T14:04:16.067Z,36.55
2019-06-01T14:05:16.078Z,35.22
2019-06-01T14:06:16.064Z,34.38
2019-06-01T14:07:17.842Z,34.61
2019-06-01T14:08:28.454Z,35.55
2019-06-01T14:09:16.073Z,35.79
2019-06-01T14:10:16.093Z,35.15
2019-06-01T14:11:16.059Z,34.18
2019-06-01T14:12:16.065Z,32.95
2019-06-01T14:13:16.100Z,32.80
2019-06-01T14:14:16.069Z,31.08
2019-06-01T14:15:16.104Z,32.15
2019-06-01T14:16:16.113Z,33.63
2019-06-01T14:17:16.075Z,33.57
2019-06-01T14:18:16.095Z,32.95
2019-06-01T14:19:16.097Z,32.60
2019-06-01T14:20:16.070Z,33.22
2019-06-01T14:21:16.087Z,32.66
2019-06-01T14:22:16.149Z,33.06
2019-06-01T14:23:16.096Z,33.98
2019-06-01T14:24:16.084Z,33.80
2019-06-01T14:25:16.092Z,32.94
2019-06-01T14:26:16.109Z,32.54
2019-06-01T14:27:16.099Z,32.37
2019-06-01T14:28:16.155Z,32.98
2019-06-01T14:29:16.131Z,32.25
2019-06-01T14:30:16.107Z,33.00
2019-06-01T14:31:16.132Z,32.37
2019-06-01T14:32:16.105Z,31.36
2019-06-01T14:33:16.138Z,29.82
2019-06-01T14:34:16.158Z,30.55
2019-06-01T14:35:16.089Z,32.48
2019-06-01T14:36:16.131Z,33.56
2019-06-01T14:37:16.139Z,33.36
2019-06-01T14:38:16.109Z,34.74
2019-06-01T14:39:16.134Z,34.95
2019-06-01T14:40:16.188Z,33.84
2019-06-01T14:41:16.104Z,33.15
2019-06-01T14:42:16.123Z,32.70
2019-06-01T14:43:16.146Z,32.24
2019-06-01T14:44:16.098Z,32.55
2019-06-01T14:45:16.114Z,33.98
2019-06-01T14:46:16.135Z,34.21
2019-06-01T14:47:18.601Z,33.81
2019-06-01T14:48:16.150Z,33.11
2019-06-01T14:49:16.140Z,32.02
2019-06-01T14:50:16.151Z,32.47
2019-06-01T14:51:16.129Z,31.76
2019-06-01T14:52:16.149Z,31.87
2019-06-01T14:53:16.110Z,32.45
2019-06-01T14:54:16.144Z,32.63
2019-06-01T14:55:16.130Z,34.16
2019-06-01T14:56:16.178Z,32.75
2019-06-01T14:57:16.115Z,30.73
2019-06-01T14:58:16.156Z,31.04
2019-06-01T14:59:16.138Z,32.05
2019-06-01T15:00:16.148Z,30.48
2019-06-01T15:01:31.345Z,29.83
2019-06-01T15:02:16.516Z,31.57
2019-06-01T15:03:16.151Z,30.99
2019-06-01T15:04:16.210Z,30.86
2019-06-01T15:05:16.120Z,31.50
2019-06-01T15:06:16.107Z,31.33
2019-06-01T15:07:16.182Z,30.31
2019-06-01T15:08:16.125Z,31.51
2019-06-01T15:09:18.931Z,31.56
2019-06-01T15:10:16.195Z,32.36
2019-06-01T15:11:16.117Z,31.63
2019-06-01T15:12:16.139Z,33.21
2019-06-01T15:13:16.148Z,31.45
2019-06-01T15:14:16.117Z,32.04
2019-06-01T15:15:16.177Z,33.24
2019-06-01T15:16:16.239Z,32.42
2019-06-01T15:17:16.150Z,31.40
2019-06-01T15:18:16.149Z,31.36
2019-06-01T15:19:16.198Z,31.19
2019-06-01T15:20:16.137Z,30.07
2019-06-01T15:21:16.182Z,30.74
2019-06-01T15:22:16.177Z,31.50
2019-06-01T15:23:16.134Z,29.55
2019-06-01T15:24:16.166Z,31.75
2019-06-01T15:25:16.169Z,31.33
2019-06-01T15:26:16.155Z,31.01
2019-06-01T15:27:16.170Z,31.19
2019-06-01T15:28:16.191Z,32.34
2019-06-01T15:29:16.200Z,31.73
2019-06-01T15:30:16.177Z,32.78
2019-06-01T15:31:16.195Z,32.19
2019-06-01T15:32:16.170Z,31.34
2019-06-01T15:33:16.220Z,31.04
2019-06-01T15:34:16.226Z,30.46
2019-06-01T15:35:16.171Z,31.06
2019-06-01T15:36:16.203Z,31.92